Time;durP1;ratioP1;P1;durP2;ratioP2;P2;SDS_P1;SDS_P2;PMS_P1;PMS_P2;Temp;Humidity;BMP_temperature;BMP_pressure;BME280_temperature;BME280_humidity;BME280_pressure;Samples;Min_cycle;Max_cycle;Signal;HPM_P1;HPM_P2
2022/01/29 00:01:39;;;;;;;19.87;5.17;;;;;;;-0.56;69.33;101645.70;1763952;80;20995;-72
2022/01/29 00:04:05;;;;;;;20.43;6.53;;;;;;;-0.55;69.42;101639.55;1764224;81;21037;-71
2022/01/29 00:06:31;;;;;;;15.28;5.75;;;;;;;-0.57;69.51;101644.03;1764074;80;21148;-72
2022/01/29 00:08:58;;;;;;;18.40;5.65;;;;;;;-0.57;69.59;101637.48;1764108;81;21062;-72
2022/01/29 00:11:29;;;;;;;17.92;5.42;;;;;;;-0.54;69.66;101637.34;1764206;81;21060;-72
2022/01/29 00:13:55;;;;;;;15.90;5.72;;;;;;;-0.51;69.75;101632.41;1763817;80;20990;-72
2022/01/29 00:16:21;;;;;;;22.90;6.72;;;;;;;-0.51;69.80;101634.58;1778048;80;21015;-71
2022/01/29 00:18:47;;;;;;;19.92;6.25;;;;;;;-0.45;69.89;101625.57;1777904;80;21748;-72
2022/01/29 00:21:13;;;;;;;19.62;6.50;;;;;;;-0.40;69.98;101624.06;1778111;80;20979;-72
2022/01/29 00:23:39;;;;;;;17.15;8.33;;;;;;;-0.37;70.06;101626.08;1778040;80;20967;-72
2022/01/29 00:26:05;;;;;;;20.08;6.00;;;;;;;-0.31;70.14;101624.94;1778093;80;21083;-72
2022/01/29 00:28:34;;;;;;;20.08;7.03;;;;;;;-0.25;70.21;101624.67;1778101;80;20987;-72
2022/01/29 00:31:02;;;;;;;16.87;6.78;;;;;;;-0.23;70.32;101622.81;1777636;80;21201;-72
2022/01/29 00:33:27;;;;;;;29.72;7.75;;;;;;;-0.19;70.42;101627.00;1777981;80;21023;-72
2022/01/29 00:35:53;;;;;;;20.43;7.03;;;;;;;-0.17;70.52;101622.52;1778198;80;20892;-72
2022/01/29 00:38:19;;;;;;;27.20;6.78;;;;;;;-0.15;70.63;101623.32;1778187;80;20849;-72
2022/01/29 00:40:46;;;;;;;18.32;7.25;;;;;;;-0.14;70.73;101619.30;1778006;80;20891;-72
2022/01/29 00:43:12;;;;;;;15.30;5.25;;;;;;;-0.13;70.87;101620.16;1778066;80;21200;-72
2022/01/29 00:45:38;;;;;;;15.18;5.33;;;;;;;-0.14;70.98;101619.30;1777946;80;21394;-72
2022/01/29 00:48:05;;;;;;;18.77;4.90;;;;;;;-0.13;71.10;101621.01;1777784;80;21007;-72
2022/01/29 00:50:31;;;;;;;17.98;4.45;;;;;;;-0.12;71.22;101620.55;1778074;80;20987;-72
2022/01/29 00:52:57;;;;;;;19.60;4.95;;;;;;;-0.11;71.35;101617.02;1777812;80;21030;-72
2022/01/29 00:55:23;;;;;;;19.10;6.03;;;;;;;-0.09;71.45;101612.54;1777827;80;21149;-72
2022/01/29 00:57:49;;;;;;;16.00;5.12;;;;;;;-0.08;71.55;101624.73;1777718;80;20983;-72
2022/01/29 01:00:16;;;;;;;12.37;5.03;;;;;;;-0.08;71.70;101619.49;1778040;80;20979;-73
2022/01/29 01:02:42;;;;;;;17.30;5.12;;;;;;;-0.07;71.81;101615.95;1782940;78;21029;-72
2022/01/29 01:05:09;;;;;;;14.80;4.92;;;;;;;-0.05;71.95;101611.48;1795009;79;21463;-72
2022/01/29 01:07:35;;;;;;;19.15;5.42;;;;;;;-0.04;72.07;101606.17;1796393;79;21801;-72
2022/01/29 01:10:01;;;;;;;19.07;4.90;;;;;;;0.00;72.22;101605.56;1795840;79;21503;-72
2022/01/29 01:12:27;;;;;;;15.08;5.05;;;;;;;0.01;72.33;101605.93;1815494;78;21515;-73
2022/01/29 01:14:55;;;;;;;18.55;4.30;;;;;;;0.04;72.48;101608.41;1795902;79;21049;-72
2022/01/29 01:17:21;;;;;;;22.82;4.15;;;;;;;0.06;72.60;101605.27;1796440;79;20978;-73
2022/01/29 01:19:47;;;;;;;20.20;4.15;;;;;;;0.09;72.74;101603.80;1796258;79;21062;-72
2022/01/29 01:22:15;;;;;;;20.27;4.53;;;;;;;0.13;72.90;101600.57;1828872;78;20862;-72
2022/01/29 01:24:41;;;;;;;19.23;5.53;;;;;;;0.14;73.01;101593.92;1796325;79;20966;-72
2022/01/29 01:27:07;;;;;;;25.30;4.05;;;;;;;0.16;73.12;101589.47;1796403;79;20950;-73
2022/01/29 01:29:33;;;;;;;23.80;4.75;;;;;;;0.17;73.25;101583.77;1796457;79;20965;-73
2022/01/29 01:31:59;;;;;;;23.22;5.00;;;;;;;0.17;73.39;101577.21;1796384;79;21977;-72
2022/01/29 01:34:29;;;;;;;19.92;5.45;;;;;;;0.20;73.51;101591.48;1828932;78;21526;-73
2022/01/29 01:36:58;;;;;;;20.25;5.75;;;;;;;0.18;73.64;101584.98;1796175;79;21303;-72
2022/01/29 01:39:25;;;;;;;22.20;5.90;;;;;;;0.19;73.75;101581.45;1795893;79;21237;-73
2022/01/29 01:42:02;;;;;;;22.17;4.72;;;;;;;0.17;73.87;101583.31;1796011;79;21538;-72
2022/01/29 01:44:23;;;;;;;23.00;5.10;;;;;;;0.16;74.01;101569.80;1795132;79;21100;-72
2022/01/29 01:46:49;;;;;;;17.23;4.72;;;;;;;0.14;74.15;101555.89;1828884;78;20990;-73
2022/01/29 01:49:16;;;;;;;30.80;5.83;;;;;;;0.13;74.29;101556.84;1796255;79;20962;-72
2022/01/29 01:51:47;;;;;;;24.52;4.90;;;;;;;0.12;74.37;101553.83;1747958;79;21023;-72
2022/01/29 01:54:15;;;;;;;20.85;4.42;;;;;;;0.11;74.52;101562.60;1796257;79;20978;-73
2022/01/29 01:56:41;;;;;;;25.72;4.83;;;;;;;0.10;74.63;101555.69;1796369;79;21151;-73
2022/01/29 01:59:07;;;;;;;18.90;4.83;;;;;;;0.10;74.75;101549.59;1828647;78;21048;-72
2022/01/29 02:01:33;;;;;;;19.95;5.20;;;;;;;0.08;74.86;101544.41;1796178;79;20997;-73
2022/01/29 02:04:01;;;;;;;28.15;5.33;;;;;;;0.07;75.00;101541.39;1796449;79;20947;-73
2022/01/29 02:06:28;;;;;;;19.90;5.03;;;;;;;0.09;75.10;101542.17;1796353;79;20978;-73
2022/01/29 02:08:59;;;;;;;22.95;5.10;;;;;;;0.07;75.21;101533.52;1796438;79;21921;-73
2022/01/29 02:11:22;;;;;;;30.37;4.90;;;;;;;0.08;75.34;101533.91;1828293;78;20978;-72
2022/01/29 02:13:48;;;;;;;33.48;6.08;;;;;;;0.09;75.43;101522.52;1796027;79;21541;-72
2022/01/29 02:16:14;;;;;;;17.40;5.08;;;;;;;0.11;75.54;101521.95;1795886;79;21471;-72
2022/01/29 02:18:40;;;;;;;19.95;4.55;;;;;;;0.13;75.67;101512.72;1796182;79;20993;-73
2022/01/29 02:21:06;;;;;;;21.25;4.42;;;;;;;0.11;75.77;101500.98;1796365;79;21793;-73
2022/01/29 02:23:33;;;;;;;21.17;6.10;;;;;;;0.11;75.85;101506.22;1829055;78;20961;-72
2022/01/29 02:25:59;;;;;;;21.48;5.87;;;;;;;0.10;75.95;101503.23;1772340;79;20947;-73
2022/01/29 02:28:25;;;;;;;27.37;6.22;;;;;;;0.10;76.06;101497.99;1796566;79;21005;-73
2022/01/29 02:31:00;;;;;;;22.07;5.22;;;;;;;0.10;76.16;101501.92;1796442;79;20919;-72
2022/01/29 02:33:25;;;;;;;19.35;5.33;;;;;;;0.12;76.25;101493.97;1796295;78;21283;-72
2022/01/29 02:35:53;;;;;;;15.72;4.30;;;;;;;0.12;76.36;101480.39;1829034;78;21036;-72
2022/01/29 02:38:21;;;;;;;34.20;5.08;;;;;;;0.12;76.46;101486.95;1796526;79;21440;-72
2022/01/29 02:40:53;;;;;;;20.55;4.10;;;;;;;0.13;76.55;101484.72;1796293;79;21030;-72
2022/01/29 02:43:33;;;;;;;25.62;4.45;;;;;;;0.14;76.65;101483.77;1796609;79;20959;-72
2022/01/29 02:46:05;;;;;;;;;;;;;;;0.16;76.73;101481.94;1798826;79;21300;-72
2022/01/29 02:48:26;;;;;;;28.42;5.35;;;;;;;0.17;76.86;101475.78;1828230;78;20147;-72
2022/01/29 02:50:52;;;;;;;26.00;7.25;;;;;;;0.22;76.96;101484.25;1796589;79;21676;-72
2022/01/29 02:53:18;;;;;;;27.27;6.65;;;;;;;0.24;77.05;101490.28;1796305;79;20978;-72
2022/01/29 02:55:44;;;;;;;30.15;5.05;;;;;;;0.26;77.13;101489.73;1796570;79;20978;-72
2022/01/29 02:58:10;;;;;;;26.20;9.13;;;;;;;0.27;77.23;101486.19;1796467;79;21021;-72
2022/01/29 03:00:36;;;;;;;19.37;6.12;;;;;;;0.29;77.29;101479.53;1829159;78;20874;-72
2022/01/29 03:03:02;;;;;;;21.62;5.37;;;;;;;0.31;77.37;101477.70;1796460;78;20963;-72
2022/01/29 03:05:28;;;;;;;25.85;4.65;;;;;;;0.32;77.47;101472.36;1771633;78;21073;-72
2022/01/29 03:07:54;;;;;;;19.25;4.58;;;;;;;0.35;77.54;101463.50;1796380;79;21053;-72
2022/01/29 03:10:22;;;;;;;26.20;3.90;;;;;;;0.37;77.63;101465.11;1795976;78;21019;-72
2022/01/29 03:12:48;;;;;;;19.73;4.00;;;;;;;0.39;77.69;101460.63;1815582;79;20955;-72
2022/01/29 03:15:14;;;;;;;22.52;4.45;;;;;;;0.42;77.75;101451.77;1802643;79;21061;-72
2022/01/29 03:17:41;;;;;;;27.50;4.85;;;;;;;0.44;77.85;101453.38;1825407;78;21014;-72
2022/01/29 03:20:09;;;;;;;19.90;3.87;;;;;;;0.49;77.92;101453.14;1796528;79;20987;-71
2022/01/29 03:22:35;;;;;;;21.75;4.25;;;;;;;0.53;77.98;101449.89;1825305;78;21808;-72
2022/01/29 03:25:01;;;;;;;21.80;4.00;;;;;;;0.55;78.05;101452.81;1796390;79;21030;-72
2022/01/29 03:27:27;;;;;;;21.27;4.47;;;;;;;0.58;78.13;101447.86;1825087;78;21001;-72
2022/01/29 03:29:53;;;;;;;22.22;5.10;;;;;;;0.60;78.19;101431.59;1792670;80;20859;-72
2022/01/29 03:32:19;;;;;;;24.67;4.10;;;;;;;0.64;78.24;101425.22;1823008;78;20981;-72
2022/01/29 03:34:45;;;;;;;25.92;5.25;;;;;;;0.66;78.30;101418.12;1796556;79;21058;-72
2022/01/29 03:37:11;;;;;;;26.87;3.98;;;;;;;0.65;78.35;101415.97;1825202;78;20950;-72
2022/01/29 03:39:38;;;;;;;20.72;4.37;;;;;;;0.66;78.39;101405.86;1792950;80;21073;-72
2022/01/29 03:42:08;;;;;;;20.88;3.92;;;;;;;0.67;78.44;101397.03;1822781;78;21435;-72
2022/01/29 03:44:33;;;;;;;17.40;3.77;;;;;;;0.69;78.52;101393.03;1796242;79;21070;-72
2022/01/29 03:46:59;;;;;;;21.17;3.10;;;;;;;0.70;78.54;101384.23;1825036;78;21086;-72
2022/01/29 03:49:25;;;;;;;24.65;4.15;;;;;;;0.70;78.60;101382.92;1792723;80;21022;-72
2022/01/29 03:51:51;;;;;;;21.97;3.55;;;;;;;0.72;78.64;101381.05;1822977;78;20970;-72
2022/01/29 03:54:17;;;;;;;23.25;5.15;;;;;;;0.72;78.71;101377.95;1796006;79;21021;-72
2022/01/29 03:56:43;;;;;;;19.20;3.80;;;;;;;0.75;78.78;101380.88;1825496;78;21467;-72
2022/01/29 03:59:09;;;;;;;22.80;4.12;;;;;;;0.78;78.83;101370.20;1792454;80;21098;-72
2022/01/29 04:01:35;;;;;;;23.15;3.98;;;;;;;0.80;78.89;101370.98;1822885;78;21009;-72
2022/01/29 04:04:01;;;;;;;19.02;4.55;;;;;;;0.78;78.95;101363.17;1796449;79;21027;-72
2022/01/29 04:06:27;;;;;;;24.47;4.85;;;;;;;0.78;79.00;101355.30;1824947;78;21041;-72
2022/01/29 04:08:53;;;;;;;23.30;4.65;;;;;;;0.79;79.08;101353.53;1825461;78;21077;-72
2022/01/29 04:11:21;;;;;;;29.82;4.92;;;;;;;0.79;79.10;101358.31;1796553;79;21162;-72
2022/01/29 04:13:48;;;;;;;27.67;4.72;;;;;;;0.79;79.14;101353.53;1825285;78;21010;-72
2022/01/29 04:16:15;;;;;;;22.75;4.00;;;;;;;0.79;79.20;101344.34;1795976;79;21006;-72
2022/01/29 04:18:41;;;;;;;24.92;4.67;;;;;;;0.77;79.26;101344.91;1825306;78;21045;-72
2022/01/29 04:21:07;;;;;;;24.60;4.05;;;;;;;0.76;79.29;101345.83;1795659;79;20907;-72
2022/01/29 04:23:35;;;;;;;22.90;4.33;;;;;;;0.75;79.30;101342.81;1825169;77;21111;-72
2022/01/29 04:26:02;;;;;;;19.98;4.37;;;;;;;0.75;79.32;101336.25;1796322;79;21038;-72
2022/01/29 04:28:32;;;;;;;24.87;3.90;;;;;;;0.76;79.35;101319.58;1825152;78;21058;-72
2022/01/29 04:31:01;;;;;;;22.50;5.72;;;;;;;0.76;79.37;101317.80;1824710;78;20971;-72
2022/01/29 04:33:30;;;;;;;19.23;4.37;;;;;;;0.77;79.41;101319.50;1792299;80;20954;-72
2022/01/29 04:35:59;;;;;;;22.22;4.50;;;;;;;0.77;79.46;101314.25;1825282;78;21051;-72
2022/01/29 04:38:26;;;;;;;19.98;3.87;;;;;;;0.78;79.48;101304.57;1792200;80;20990;-72
2022/01/29 04:40:52;;;;;;;22.90;4.12;;;;;;;0.79;79.51;101301.02;1822987;78;20971;-72
2022/01/29 04:43:18;;;;;;;20.43;4.90;;;;;;;0.80;79.56;101304.04;1796510;79;21019;-72
2022/01/29 04:45:44;;;;;;;23.20;4.67;;;;;;;0.80;79.58;101318.48;1824909;78;21029;-72
2022/01/29 04:48:11;;;;;;;16.67;3.62;;;;;;;0.78;79.64;101315.08;1792906;80;21073;-72
2022/01/29 04:50:37;;;;;;;22.00;3.70;;;;;;;0.77;79.67;101311.63;1822705;78;21458;-72
2022/01/29 04:53:04;;;;;;;23.98;4.28;;;;;;;0.76;79.66;101305.14;1796395;79;20907;-72
2022/01/29 04:55:31;;;;;;;24.65;4.50;;;;;;;0.76;79.69;101298.58;1824892;78;20993;-72
2022/01/29 04:57:57;;;;;;;21.90;4.55;;;;;;;0.76;79.70;101297.27;1792932;80;21029;-72
2022/01/29 05:00:23;;;;;;;20.72;3.72;;;;;;;0.79;79.73;101297.09;1822813;78;21053;-72
2022/01/29 05:02:53;;;;;;;17.10;4.25;;;;;;;0.81;79.75;101296.55;1795884;79;47964;-72
2022/01/29 05:05:19;;;;;;;21.15;4.03;;;;;;;0.83;79.79;101289.42;1820970;78;21009;-72
2022/01/29 05:07:45;;;;;;;24.60;4.47;;;;;;;0.85;79.82;101277.89;1792777;80;20971;-72
2022/01/29 05:10:11;;;;;;;25.40;4.90;;;;;;;0.87;79.84;101271.26;1792997;80;21065;-72
2022/01/29 05:28:35;;;;;;;27.58;5.78;;;;;;;0.97;79.98;101217.28;1795994;80;21478;-72
2022/01/29 05:31:01;;;;;;;22.30;4.60;;;;;;;0.99;80.00;101215.40;1828226;78;20962;-72
2022/01/29 05:33:28;;;;;;;23.77;4.28;;;;;;;1.02;80.04;101206.05;1795872;80;21002;-72
2022/01/29 05:35:54;;;;;;;22.95;5.25;;;;;;;1.05;80.04;101197.99;1795970;79;21073;-72
2022/01/29 05:38:20;;;;;;;21.37;5.08;;;;;;;1.08;80.06;101192.55;1795720;79;21754;-72
2022/01/29 05:40:46;;;;;;;19.37;4.95;;;;;;;1.10;80.06;101182.79;1795796;80;21033;-72
2022/01/29 05:43:12;;;;;;;22.17;4.87;;;;;;;1.12;80.05;101183.56;1827833;78;21005;-72
2022/01/29 05:45:38;;;;;;;15.95;5.55;;;;;;;1.14;80.06;101173.80;1795621;79;21080;-72
2022/01/29 05:48:04;;;;;;;21.12;5.08;;;;;;;1.15;80.06;101172.02;1795975;80;20851;-72
2022/01/29 05:50:30;;;;;;;26.15;7.87;;;;;;;1.18;80.08;101166.13;1795933;80;21716;-72
2022/01/29 05:52:56;;;;;;;24.05;7.95;;;;;;;1.19;80.07;101169.13;1795844;79;21009;-72
2022/01/29 05:55:22;;;;;;;36.65;12.98;;;;;;;1.21;80.07;101164.62;1828234;78;20863;-72
2022/01/29 05:57:48;;;;;;;33.58;12.78;;;;;;;1.24;80.06;101164.43;1796265;79;20859;-72
2022/01/29 06:00:15;;;;;;;40.00;12.75;;;;;;;1.24;80.08;101157.86;1795773;79;21296;-72
2022/01/29 06:02:41;;;;;;;39.40;10.98;;;;;;;1.25;80.08;101162.66;1771543;79;21163;-72
2022/01/29 06:05:08;;;;;;;24.87;5.75;;;;;;;1.26;80.07;101161.27;1768378;80;21743;-72
2022/01/29 06:07:34;;;;;;;28.02;6.92;;;;;;;1.27;80.07;101155.52;1825365;78;20990;-72
2022/01/29 06:10:00;;;;;;;28.50;5.28;;;;;;;1.28;80.05;101150.18;1795261;79;20955;-72
2022/01/29 06:12:26;;;;;;;19.85;4.05;;;;;;;1.27;80.06;101140.59;1795897;79;21084;-72
2022/01/29 06:14:52;;;;;;;21.95;4.55;;;;;;;1.30;80.07;101141.72;1761027;81;21031;-72
2022/01/29 06:17:18;;;;;;;20.35;4.03;;;;;;;1.30;80.07;101141.72;1769314;81;21462;-72
2022/01/29 06:19:44;;;;;;;18.32;4.75;;;;;;;1.34;80.05;101135.81;1789226;80;21080;-74
2022/01/29 06:22:13;;;;;;;16.82;4.40;;;;;;;1.34;80.07;101123.53;1758323;81;21523;-72
2022/01/29 06:24:38;;;;;;;25.95;5.53;;;;;;;1.36;80.08;101128.23;1773514;80;21017;-73
2022/01/29 06:27:04;;;;;;;23.65;6.83;;;;;;;1.37;80.08;101119.39;1765730;80;21560;-73
2022/01/29 06:29:30;;;;;;;13.32;5.05;;;;;;;1.38;80.07;101111.89;1815120;79;20977;-73
2022/01/29 06:31:56;;;;;;;18.52;6.45;;;;;;;1.39;80.05;101100.45;1781258;79;20975;-72
2022/01/29 06:34:22;;;;;;;19.82;4.42;;;;;;;1.39;80.06;101099.61;1747444;81;20983;-72
2022/01/29 06:36:48;;;;;;;21.35;5.12;;;;;;;1.38;80.05;101100.53;1786056;80;20958;-72
2022/01/29 06:39:14;;;;;;;15.72;4.65;;;;;;;1.34;80.06;101097.25;1779361;79;21122;-72
2022/01/29 06:41:40;;;;;;;19.12;4.28;;;;;;;1.35;80.05;101093.70;1763212;79;21017;-72
2022/01/29 06:44:06;;;;;;;17.45;5.10;;;;;;;1.34;80.07;101092.00;1766082;80;20924;-72
2022/01/29 06:46:32;;;;;;;21.35;6.25;;;;;;;1.34;80.09;101100.34;1765233;81;21050;-73
2022/01/29 06:48:58;;;;;;;20.17;4.85;;;;;;;1.33;80.09;101101.30;1764777;81;20915;-73
2022/01/29 06:51:24;;;;;;;22.60;8.38;;;;;;;1.31;80.12;101095.28;1757591;81;21867;-73
2022/01/29 06:53:51;;;;;;;24.55;6.03;;;;;;;1.30;80.15;101097.06;1765921;81;20996;-73
2022/01/29 06:56:16;;;;;;;20.77;6.72;;;;;;;1.31;80.19;101093.97;1744771;81;21046;-73
2022/01/29 06:58:43;;;;;;;17.77;5.42;;;;;;;1.29;80.21;101094.08;1735752;82;21109;-72
2022/01/29 07:01:09;;;;;;;24.12;8.85;;;;;;;1.28;80.23;101100.27;1750172;81;21056;-72
2022/01/29 07:03:35;;;;;;;21.40;5.33;;;;;;;1.29;80.26;101091.92;1763214;81;21139;-73
2022/01/29 07:06:01;;;;;;;20.37;4.65;;;;;;;1.30;80.32;101082.61;1753451;80;20848;-72
2022/01/29 07:08:27;;;;;;;26.65;4.45;;;;;;;1.31;80.35;101077.73;1742564;81;21089;-72
2022/01/29 07:10:53;;;;;;;19.70;4.53;;;;;;;1.30;80.40;101074.73;1743099;80;21093;-72
2022/01/29 07:13:20;;;;;;;25.15;4.33;;;;;;;1.33;80.44;101064.06;1764027;80;21017;-72
2022/01/29 07:15:46;;;;;;;23.67;4.92;;;;;;;1.33;80.48;101058.80;1772507;80;21080;-72
2022/01/29 07:18:12;;;;;;;20.32;5.25;;;;;;;1.33;80.52;101066.69;1794186;78;20970;-73
2022/01/29 07:20:38;;;;;;;28.38;5.35;;;;;;;1.31;80.58;101065.92;1791196;80;21652;-72
2022/01/29 07:23:06;;;;;;;22.48;5.40;;;;;;;1.30;80.65;101060.28;1825090;78;21637;-72
2022/01/29 07:25:33;;;;;;;20.60;4.87;;;;;;;1.28;80.74;101054.29;1825266;78;20988;-72
2022/01/29 07:27:59;;;;;;;18.15;4.40;;;;;;;1.27;80.76;101061.78;1824939;78;21143;-73
2022/01/29 07:30:25;;;;;;;14.38;4.37;;;;;;;1.28;80.83;101061.32;1825487;78;21511;-73
2022/01/29 07:32:51;;;;;;;18.80;4.30;;;;;;;1.27;80.87;101053.91;1825521;78;20948;-73
2022/01/29 07:35:17;;;;;;;15.80;3.80;;;;;;;1.29;80.90;101044.16;1825330;78;21511;-72
2022/01/29 07:37:43;;;;;;;21.33;5.42;;;;;;;1.29;80.96;101032.34;1825247;78;21670;-72
2022/01/29 07:40:09;;;;;;;56.63;14.93;;;;;;;1.30;81.02;101020.87;1825123;78;21837;-72
2022/01/29 07:42:37;;;;;;;31.65;8.65;;;;;;;1.32;81.08;101020.79;1825249;78;21002;-72
2022/01/29 07:45:03;;;;;;;21.07;6.30;;;;;;;1.32;81.13;101022.10;1825419;78;21033;-73
2022/01/29 07:47:29;;;;;;;60.48;19.05;;;;;;;1.30;81.21;101006.42;1825404;78;21030;-73
2022/01/29 07:49:55;;;;;;;89.92;25.65;;;;;;;1.29;81.30;101009.16;1793005;80;21038;-73
2022/01/29 07:52:21;;;;;;;19.80;5.35;;;;;;;1.28;81.37;101007.00;1824861;78;21102;-73
2022/01/29 07:54:47;;;;;;;32.00;6.80;;;;;;;1.26;81.42;101005.42;1824871;78;21003;-73
2022/01/29 07:57:13;;;;;;;27.40;9.78;;;;;;;1.25;81.47;100992.75;1824982;78;20975;-72
2022/01/29 07:59:39;;;;;;;47.78;16.50;;;;;;;1.25;81.53;100987.96;1825473;78;20971;-73
2022/01/29 08:02:05;;;;;;;18.90;6.67;;;;;;;1.24;81.57;100983.64;1825347;78;21042;-73
2022/01/29 08:04:31;;;;;;;16.80;4.53;;;;;;;1.24;81.62;100985.80;1800204;78;21005;-72
2022/01/29 08:06:57;;;;;;;22.60;6.70;;;;;;;1.24;81.66;100984.95;1784214;78;21697;-72
2022/01/29 08:09:23;;;;;;;17.15;5.35;;;;;;;1.24;81.73;100979.23;1824080;77;21504;-73
2022/01/29 08:11:49;;;;;;;30.57;8.75;;;;;;;1.24;81.78;100968.72;1825559;77;20953;-73
2022/01/29 08:14:15;;;;;;;27.75;7.20;;;;;;;1.23;81.83;100963.09;1827966;77;21451;-73
2022/01/29 08:16:41;;;;;;;14.60;5.22;;;;;;;1.23;81.89;100961.77;1781571;79;21617;-72
2022/01/29 08:19:07;;;;;;;16.45;5.12;;;;;;;1.24;81.96;100950.33;1807500;77;21537;-72
2022/01/29 08:21:33;;;;;;;23.38;8.28;;;;;;;1.22;82.00;100945.66;1808645;78;21010;-72
2022/01/29 08:23:59;;;;;;;19.77;7.37;;;;;;;1.20;82.08;100939.64;1785175;79;21567;-73
2022/01/29 08:26:25;;;;;;;16.30;5.33;;;;;;;1.23;82.15;100934.19;1790629;79;20996;-72
2022/01/29 08:28:51;;;;;;;17.32;8.15;;;;;;;1.23;82.19;100925.00;1790593;79;21976;-71
2022/01/29 08:31:17;;;;;;;21.23;7.20;;;;;;;1.22;82.23;100927.27;1788921;79;21011;-71
2022/01/29 08:33:43;;;;;;;24.18;8.48;;;;;;;1.22;82.31;100919.86;1784761;79;21032;-71
2022/01/29 08:36:09;;;;;;;25.48;8.43;;;;;;;1.21;82.36;100913.76;1787692;79;20966;-71
2022/01/29 08:38:35;;;;;;;17.10;5.97;;;;;;;1.22;82.44;100916.77;1794267;79;20991;-71
2022/01/29 08:41:01;;;;;;;16.70;5.60;;;;;;;1.25;82.51;100911.31;1786601;79;21046;-71
2022/01/29 08:43:27;;;;;;;16.00;6.08;;;;;;;1.26;82.58;100912.16;1791741;79;21057;-72
2022/01/29 08:45:54;;;;;;;24.20;8.55;;;;;;;1.26;82.63;100906.44;1792345;79;20996;-72
2022/01/29 08:48:20;;;;;;;23.77;8.05;;;;;;;1.26;82.72;100906.91;1795393;79;21061;-71
2022/01/29 08:50:46;;;;;;;20.68;8.50;;;;;;;1.25;82.80;100898.18;1786521;79;21012;-72
2022/01/29 08:53:12;;;;;;;16.23;6.47;;;;;;;1.25;82.87;100898.18;1793937;79;21159;-71
2022/01/29 08:55:38;;;;;;;15.50;6.47;;;;;;;1.23;82.92;100889.53;1789083;79;21091;-72
2022/01/29 08:58:08;;;;;;;17.35;5.72;;;;;;;1.22;82.97;100882.62;1784882;79;20996;-73
2022/01/29 09:00:36;;;;;;;16.35;5.75;;;;;;;1.25;83.01;100879.79;1794932;78;21073;-72
2022/01/29 09:03:02;;;;;;;12.47;5.70;;;;;;;1.25;83.05;100871.91;1793781;79;21129;-73
2022/01/29 09:05:28;;;;;;;16.85;6.83;;;;;;;1.28;83.10;100871.70;1811999;77;21098;-73
2022/01/29 09:07:54;;;;;;;14.58;5.75;;;;;;;1.30;83.18;100864.55;1784745;78;21758;-73
2022/01/29 09:10:20;;;;;;;17.57;6.15;;;;;;;1.32;83.23;100862.69;1785541;79;20901;-73
2022/01/29 09:12:46;;;;;;;16.02;7.25;;;;;;;1.34;83.27;100862.11;1795925;78;21038;-73
2022/01/29 09:15:12;;;;;;;19.17;6.10;;;;;;;1.37;83.33;100852.70;1780610;79;21029;-73
2022/01/29 09:17:39;;;;;;;12.45;5.03;;;;;;;1.39;83.39;100850.84;1787443;79;21164;-72
2022/01/29 09:20:10;;;;;;;11.60;5.05;;;;;;;1.41;83.45;100848.94;1815070;78;20981;-73
2022/01/29 09:22:36;;;;;;;;;;;;;;;1.42;83.52;100848.00;1818302;78;21061;-73
2022/01/29 09:25:03;;;;;;;13.05;5.75;;;;;;;1.43;83.55;100841.81;1820121;78;20164;-73
2022/01/29 09:27:29;;;;;;;16.50;6.62;;;;;;;1.43;83.61;100841.81;1787750;79;20998;-73
2022/01/29 09:29:55;;;;;;;14.00;5.72;;;;;;;1.44;83.66;100836.91;1810596;78;21155;-73
2022/01/29 09:32:21;;;;;;;13.55;5.25;;;;;;;1.44;83.70;100837.41;1778280;80;20903;-73
2022/01/29 09:34:47;;;;;;;15.32;6.10;;;;;;;1.46;83.73;100831.09;1777489;79;21024;-73
2022/01/29 09:37:13;;;;;;;13.28;5.97;;;;;;;1.47;83.80;100828.00;1809967;77;21045;-73
2022/01/29 09:39:39;;;;;;;15.72;5.97;;;;;;;1.49;83.84;100820.38;1779227;79;20974;-73
2022/01/29 09:42:06;;;;;;;12.45;5.45;;;;;;;1.53;83.88;100822.80;1806232;77;21142;-73
2022/01/29 09:44:34;;;;;;;15.70;6.37;;;;;;;1.55;83.92;100815.67;1781578;79;21015;-73
2022/01/29 09:47:01;;;;;;;15.78;6.42;;;;;;;1.58;83.97;100803.64;1793727;78;21589;-73
2022/01/29 09:49:31;;;;;;;19.75;7.65;;;;;;;1.61;84.02;100803.43;1781505;80;21022;-73
2022/01/29 09:51:57;;;;;;;17.60;8.88;;;;;;;1.63;84.07;100798.89;1799930;78;21037;-73
2022/01/29 09:54:23;;;;;;;27.17;11.97;;;;;;;1.65;84.11;100791.77;1780272;79;21156;-74
2022/01/29 09:56:49;;;;;;;22.52;10.18;;;;;;;1.68;84.19;100792.87;1779782;79;21054;-73
2022/01/29 09:59:15;;;;;;;25.00;9.83;;;;;;;1.67;84.23;100780.66;1806304;77;20906;-73
2022/01/29 10:01:41;;;;;;;21.37;8.60;;;;;;;1.69;84.27;100781.42;1815338;77;21073;-73
2022/01/29 10:04:07;;;;;;;17.20;6.80;;;;;;;1.67;84.33;100779.34;1783068;79;21067;-74
2022/01/29 10:06:35;;;;;;;16.17;8.50;;;;;;;1.67;84.38;100767.52;1784427;79;21038;-72
2022/01/29 10:09:06;;;;;;;16.77;8.90;;;;;;;1.68;84.40;100763.95;1784482;78;21053;-73
2022/01/29 10:11:32;;;;;;;12.05;5.87;;;;;;;1.68;84.46;100765.27;1768070;79;21006;-73
2022/01/29 10:14:01;;;;;;;13.13;6.20;;;;;;;1.70;84.50;100756.33;1765524;79;21527;-74
2022/01/29 10:16:29;;;;;;;10.28;4.85;;;;;;;1.71;84.53;100747.97;1754020;81;21035;-74
2022/01/29 10:19:11;;;;;;;18.15;8.80;;;;;;;1.73;84.59;100738.17;1736521;81;21170;-74
2022/01/29 10:21:42;;;;;;;15.18;7.03;;;;;;;1.74;84.65;100731.98;1720659;82;21102;-74
2022/01/29 10:24:12;;;;;;;15.05;7.45;;;;;;;1.78;84.71;100724.25;1735866;82;21333;-74
2022/01/29 10:26:41;;;;;;;20.32;10.45;;;;;;;1.78;84.77;100725.10;1736027;82;21018;-74
2022/01/29 10:29:09;;;;;;;22.43;11.33;;;;;;;1.80;84.83;100713.98;1736215;82;21066;-74
2022/01/29 10:31:46;;;;;;;14.00;7.78;;;;;;;1.84;84.89;100714.62;1737495;81;21142;-74
2022/01/29 10:34:29;;;;;;;15.93;8.25;;;;;;;1.83;84.93;100702.44;1742425;81;21146;-74
2022/01/29 10:37:24;;;;;;;13.10;5.42;;;;;;;1.81;84.97;100683.28;1764848;80;21527;-74
2022/01/29 10:39:58;;;;;;;9.43;5.35;;;;;;;1.84;85.02;100671.23;1766113;81;20963;-74
2022/01/29 10:42:31;;;;;;;6.33;4.75;;;;;;;1.89;85.10;100674.39;1765759;80;21059;-74
2022/01/29 10:45:02;;;;;;;12.45;5.80;;;;;;;1.89;85.13;100660.78;1757673;81;21479;-74
2022/01/29 10:47:31;;;;;;;10.25;5.00;;;;;;;1.91;85.18;100662.81;1735640;82;21014;-74
2022/01/29 10:50:02;;;;;;;11.88;5.33;;;;;;;1.92;85.24;100656.61;1754615;81;21457;-74
2022/01/29 10:52:33;;;;;;;10.35;5.22;;;;;;;1.92;85.30;100646.56;1766133;80;20959;-74
2022/01/29 10:55:02;;;;;;;13.30;6.75;;;;;;;1.93;85.36;100635.95;1765793;81;21497;-73
2022/01/29 10:57:40;;;;;;;5.78;3.92;;;;;;;1.95;85.38;100630.56;1763283;81;21154;-73
2022/01/29 11:00:22;;;;;;;8.13;4.17;;;;;;;1.98;85.43;100627.71;1763347;80;20999;-74
2022/01/29 11:02:49;;;;;;;14.95;9.33;;;;;;;2.00;85.48;100614.84;1750492;80;21036;-74
2022/01/29 11:05:15;;;;;;;9.13;4.80;;;;;;;2.03;85.52;100615.09;1766061;81;21055;-74
2022/01/29 11:07:51;;;;;;;11.35;5.50;;;;;;;2.03;85.54;100609.83;1758209;81;21130;-74
2022/01/29 11:10:16;;;;;;;8.53;4.17;;;;;;;2.05;85.58;100600.02;1766157;80;21138;-75
2022/01/29 11:12:44;;;;;;;10.03;5.05;;;;;;;2.08;85.64;100604.21;1763764;81;21030;-74
2022/01/29 11:15:10;;;;;;;7.30;4.72;;;;;;;2.10;85.68;100601.86;1766006;80;21480;-74
2022/01/29 11:17:36;;;;;;;9.25;4.92;;;;;;;2.12;85.69;100597.78;1774181;79;21530;-74
2022/01/29 11:20:03;;;;;;;8.65;4.40;;;;;;;2.13;85.72;100581.91;1817340;78;21435;-74
2022/01/29 11:22:35;;;;;;;9.20;5.37;;;;;;;2.13;85.73;100581.91;1822407;78;21225;-74
2022/01/29 11:25:07;;;;;;;7.42;4.92;;;;;;;2.13;85.76;100566.13;1779110;80;21504;-74
2022/01/29 11:27:35;;;;;;;8.05;4.80;;;;;;;2.14;85.78;100580.96;1781216;78;21067;-73
2022/01/29 11:30:11;;;;;;;5.72;3.70;;;;;;;2.16;85.80;100552.73;1798210;78;21082;-74
2022/01/29 11:32:43;;;;;;;7.80;4.42;;;;;;;2.20;85.84;100562.09;1773494;79;21002;-74
2022/01/29 11:35:25;;;;;;;9.33;4.50;;;;;;;2.21;85.88;100546.67;1798664;78;21202;-74
2022/01/29 11:38:06;;;;;;;7.45;4.55;;;;;;;2.21;85.91;100541.41;1773784;79;20986;-74
2022/01/29 11:40:38;;;;;;;9.30;4.75;;;;;;;2.26;85.93;100538.42;1791272;80;21006;-74